Flight Track Log - Related Links

Times and Time Zones

All times are in EDT time to prevent confusion due to time zone crossing. See the SKW5631 flight status page for this flight to view local times or setup timezone preferences in your user account.

Time Position Orientation Groundspeed Altitude Reporting Facility
EDT Latitude Longitude Course Direction KTS MPH feet Rate Location/Type
Tue 03:09:58 PM 32.8833 -97.0500 294° West 147 169 1,300  Level Dallas / Fort Worth TRACON
Tue 03:10:40 PM 32.8500 -97.0500 180° South 192 221 2,500 1,750 Climbing Dallas / Fort Worth TRACON
Tue 03:11:34 PM 32.8000 -97.0667 196° South 257 296 4,100 2,158 Climbing Dallas / Fort Worth TRACON
Tue 03:12:34 PM 32.7667 -97.1500 245° Southwest 280 322 6,600 2,415 Climbing Dallas / Fort Worth TRACON
Tue 03:13:00 PM 32.8520 -97.4346 293° West  Level FlightAware Approximate
Tue 03:14:00 PM 32.8974 -97.5595 293° West  Level FlightAware Approximate
Tue 03:14:18 PM 32.7978 -97.3022 284° West 403 464 10,700  Level Fort Worth Center
Tue 03:15:00 PM 32.9474 -97.6819 294° West  Level FlightAware Approximate
Tue 03:15:18 PM 32.8314 -97.3861 296° West 333 383 12,100  Level Fort Worth Center
Tue 03:16:18 PM 32.8792 -97.4950 298° West 324 373 14,400 2,050 Climbing Fort Worth Center
Tue 03:17:18 PM 32.9189 -97.5892 297° West 337 388 16,200 1,800 Climbing Fort Worth Center
Tue 03:18:18 PM 32.9625 -97.6933 297° West 348 400 18,000 2,050 Climbing Fort Worth Center
Tue 03:19:18 PM 32.9933 -97.8197 286° West 365 420 20,300 1,850 Climbing Fort Worth Center
Tue 03:20:18 PM 33.0117 -97.9336 281° West 376 433 21,700 1,650 Climbing Fort Worth Center
Tue 03:21:18 PM 33.0319 -98.0675 280° West 383 441 23,600 1,500 Climbing Fort Worth Center
Tue 03:22:18 PM 33.0503 -98.1817 281° West 394 453 24,700 1,250 Climbing Fort Worth Center
Tue 03:23:18 PM 33.0722 -98.3233 281° West 394 453 26,100 1,250 Climbing Fort Worth Center
Tue 03:24:18 PM 33.1111 -98.4328 293° West 389 448 27,200 1,000 Climbing Fort Worth Center
Tue 03:25:18 PM 33.1600 -98.5550 296° West 398 458 28,100 950 Climbing Fort Worth Center
Tue 03:26:18 PM 33.2111 -98.6822 296° West 409 471 29,100 900 Climbing Fort Worth Center
Tue 03:27:18 PM 33.2639 -98.8097 296° West 423 487 29,900 900 Climbing Fort Worth Center
Tue 03:28:18 PM 33.3189 -98.9372 297° West 428 493 30,900 850 Climbing Fort Worth Center
Tue 03:29:18 PM 33.3714 -99.0675 296° West 428 493 31,600 950 Climbing Fort Worth Center
Tue 03:30:18 PM 33.4239 -99.1981 296° West 428 493 32,800 1,000 Climbing Fort Worth Center
Tue 03:31:18 PM 33.4742 -99.3261 295° West 428 493 33,600 650 Climbing Fort Worth Center
Tue 03:32:18 PM 33.5283 -99.4592 296° West 428 493 34,100 800 Climbing Fort Worth Center
Tue 03:33:18 PM 33.5803 -99.5925 295° West 428 493 35,200 900 Climbing Fort Worth Center
Tue 03:34:18 PM 33.6325 -99.7211 296° West 428 493 35,900 650 Climbing Fort Worth Center
Tue 03:35:18 PM 33.6842 -99.8522 295° West 428 493 36,500 545 Climbing Fort Worth Center
Tue 03:36:19 PM 33.7358 -99.9811 296° West 428 493 37,000 500 Climbing Fort Worth Center
Tue 03:37:18 PM 33.7853 -100.1125 294° West 428 493 37,500 353 Climbing Fort Worth Center
Tue 03:38:18 PM 33.8386 -100.2442 296° West 428 493 37,700 250 Climbing Fort Worth Center
Tue 03:39:18 PM 33.8900 -100.3758 295° West 428 493 38,000 150 Climbing Fort Worth Center
Tue 03:40:18 PM 33.9450 -100.5106 296° West 433 498 38,000  Level Fort Worth Center
Tue 03:41:19 PM 33.9958 -100.6500 294° West 443 510 38,000  Level Fort Worth Center
Tue 03:42:19 PM 34.0544 -100.8028 295° West 449 517 38,000  Level Fort Worth Center
Tue 03:43:18 PM 34.1089 -100.9403 296° West 449 517 38,000  Level Fort Worth Center
Tue 03:44:18 PM 34.1614 -101.0781 295° West 449 517 38,000  Level Fort Worth Center
Tue 03:45:19 PM 34.2136 -101.2158 295° West 444 511 38,000  Level Fort Worth Center
Tue 03:46:18 PM 34.2636 -101.3536 294° West 449 517 38,000  Level Fort Worth Center
Tue 03:47:18 PM 34.3175 -101.4919 295° West 449 517 38,000  Level Fort Worth Center
Tue 03:48:39 PM 34.3800 -101.6611 294° West 453 521 38,000  Level Albuquerque Center
Tue 03:49:40 PM 34.4322 -101.8028 294° West 457 526 38,000  Level Albuquerque Center
Tue 03:50:42 PM 34.4842 -101.9458 294° West 459 528 38,000  Level Albuquerque Center
Tue 03:51:44 PM 34.5467 -102.1131 294° West 454 522 38,000  Level Albuquerque Center
Tue 03:52:45 PM 34.5972 -102.2519 294° West 451 519 38,000  Level Albuquerque Center
Tue 03:53:47 PM 34.6486 -102.3917 294° West 451 519 38,000  Level Albuquerque Center
Tue 03:54:49 PM 34.6994 -102.5325 294° West 453 521 38,000  Level Albuquerque Center
Tue 03:55:50 PM 34.7522 -102.6764 294° West 455 524 38,000  Level Albuquerque Center
Tue 03:56:52 PM 34.8031 -102.8189 294° West 456 525 38,000  Level Albuquerque Center
Tue 03:57:54 PM 34.8547 -102.9600 294° West 454 522 38,000  Level Albuquerque Center
Tue 03:58:55 PM 34.9072 -103.1028 294° West 455 524 38,000  Level Albuquerque Center
Tue 03:59:57 PM 34.9578 -103.2456 293° West 455 524 38,000  Level Albuquerque Center
Tue 04:00:59 PM 35.0172 -103.4128 294° West 457 526 38,000  Level Albuquerque Center
Tue 04:02:01 PM 35.0683 -103.5567 293° West 458 527 38,000  Level Albuquerque Center
Tue 04:03:02 PM 35.1183 -103.7008 293° West 459 528 38,000  Level Albuquerque Center
Tue 04:04:04 PM 35.1689 -103.8436 293° West 456 525 38,000  Level Albuquerque Center
Tue 04:05:06 PM 35.2164 -103.9794 293° West 458 527 38,000  Level Albuquerque Center
Tue 04:06:07 PM 35.2658 -104.1211 293° West 456 525 38,000  Level Albuquerque Center
Tue 04:07:09 PM 35.3147 -104.2625 293° West 452 520 38,000  Level Albuquerque Center
Tue 04:08:11 PM 35.3703 -104.4319 292° West 453 521 38,000  Level Albuquerque Center
Tue 04:09:13 PM 35.4197 -104.5747 293° West 453 521 38,000  Level Albuquerque Center
Tue 04:10:15 PM 35.4683 -104.7183 293° West 453 521 38,000  Level Albuquerque Center
Tue 04:11:16 PM 35.5164 -104.8614 292° West 451 519 38,000  Level Albuquerque Center
Tue 04:12:18 PM 35.5656 -105.0075 293° West 457 526 38,000  Level Albuquerque Center
Tue 04:13:20 PM 35.6122 -105.1492 292° West 446 513 38,000  Level Albuquerque Center
Tue 04:14:22 PM 35.6594 -105.2903 292° West 443 510 38,000  Level Albuquerque Center
Tue 04:15:24 PM 35.7158 -105.4567 293° West 447 514 38,000  Level Albuquerque Center
Tue 04:16:25 PM 35.7558 -105.5778 292° West 447 514 38,000  Level Albuquerque Center
Tue 04:17:27 PM 35.8019 -105.7167 292° West 442 509 38,000  Level Albuquerque Center
Tue 04:18:29 PM 35.8564 -105.8819 292° West 438 504 38,000  Level Albuquerque Center
Tue 04:19:31 PM 35.9006 -106.0181 292° West 432 497 38,000  Level Albuquerque Center
Tue 04:20:33 PM 35.9450 -106.1533 292° West 428 493 38,000  Level Albuquerque Center
Tue 04:21:35 PM 35.9892 -106.2903 292° West 430 495 38,000  Level Albuquerque Center
Tue 04:22:37 PM 36.0331 -106.4239 292° West 425 489 38,000  Level Albuquerque Center
Tue 04:23:38 PM 36.0753 -106.5567 292° West 420 483 38,000  Level Albuquerque Center
Tue 04:24:40 PM 36.1256 -106.7153 291° West 416 479 38,000  Level Albuquerque Center
Tue 04:25:42 PM 36.1669 -106.8469 291° West 414 476 38,000  Level Albuquerque Center
Tue 04:26:44 PM 36.2119 -106.9897 291° West 416 479 38,000  Level Albuquerque Center
Tue 04:27:46 PM 36.2514 -107.1156 291° West 412 474 38,000  Level Albuquerque Center
Tue 04:28:48 PM 36.2983 -107.2647 291° West 416 479 38,000  Level Albuquerque Center
Tue 04:29:50 PM 36.3397 -107.3972 291° West 426 490 38,000  Level Albuquerque Center
Tue 04:30:51 PM 36.3878 -107.5517 291° West 431 496 38,000  Level Albuquerque Center
Tue 04:31:14 PM 36.4019 -107.5947 292° West 430 495 38,000  Level Denver Center
Tue 04:32:15 PM 36.4403 -107.7269 290° West 428 493 38,000  Level Denver Center
Tue 04:33:17 PM 36.4872 -107.8786 291° West 425 489 38,000  Level Denver Center
Tue 04:34:19 PM 36.5275 -108.0111 291° West 428 493 38,000  Level Denver Center
Tue 04:35:20 PM 36.5739 -108.1656 291° West 428 493 38,000  Level Denver Center
Tue 04:36:22 PM 36.6142 -108.2950 291° West 424 488 38,000  Level Denver Center
Tue 04:37:24 PM 36.6578 -108.4447 290° West 417 480 38,000  Level Denver Center
Tue 04:38:25 PM 36.6958 -108.5717 291° West 412 474 38,000  Level Denver Center
Tue 04:39:27 PM 36.7394 -108.7194 290° West 410 472 38,000  Level Denver Center
Tue 04:40:29 PM 36.7761 -108.8422 290° West 401 461 38,000  Level Denver Center
Tue 04:41:30 PM 36.8131 -108.9686 290° West 406 467 38,000  Level Denver Center
Tue 04:42:32 PM 36.8558 -109.1150 290° West 403 464 38,000  Level Denver Center
Tue 04:43:34 PM 36.8917 -109.2400 290° West 402 463 38,000  Level Denver Center
Tue 04:44:35 PM 36.9344 -109.3869 290° West 404 465 38,000  Level Denver Center
Tue 04:45:37 PM 36.9706 -109.5147 290° West 407 468 38,000  Level Denver Center
Tue 04:46:39 PM 37.0125 -109.6619 290° West 406 467 38,000  Level Denver Center
Tue 04:47:40 PM 37.0497 -109.7878 290° West 405 466 38,000  Level Denver Center
Tue 04:48:54 PM 37.0908 -109.9336 290° West 399 459 38,000  Level Denver Center
Tue 04:49:56 PM 37.1322 -110.0789 290° West 397 457 38,000  Level Denver Center
Tue 04:50:58 PM 37.1725 -110.2228 289° West 399 459 38,000  Level Denver Center
Tue 04:51:59 PM 37.2011 -110.3278 289° West 399 459 38,000  Level Denver Center
Tue 04:53:01 PM 37.2447 -110.4858 289° West 399 459 38,000  Level Denver Center
Tue 04:54:15 PM 37.2822 -110.6181 290° West 403 464 38,000  Level Denver Center
Tue 04:55:29 PM 37.3339 -110.8053 289° West 406 467 38,000  Level Denver Center
Tue 04:56:31 PM 37.3775 -110.9667 289° West 407 468 38,000  Level Denver Center
Tue 04:57:33 PM 37.4139 -111.1008 289° West 407 468 38,000  Level Denver Center
Tue 04:58:35 PM 37.4508 -111.2342 289° West 405 466 38,000  Level Denver Center
Tue 04:59:36 PM 37.4789 -111.3425 288° West 405 466 38,000  Level Denver Center
Tue 05:00:38 PM 37.5225 -111.5036 289° West 406 467 38,000  Level Denver Center
Tue 05:01:40 PM 37.5575 -111.6381 288° West 405 466 38,000  Level Denver Center
Tue 05:02:42 PM 37.5939 -111.7717 289° West 406 467 38,000  Level Denver Center
Tue 05:03:29 PM 37.6208 -111.8797 288° West 407 468 38,000  Level Salt Lake Center
Tue 05:04:30 PM 37.6644 -112.0411 289° West 407 468 38,000  Level Salt Lake Center
Tue 05:05:32 PM 37.6992 -112.1739 288° West 403 464 38,000  Level Salt Lake Center
Tue 05:06:33 PM 37.7333 -112.3069 288° West 400 460 38,000  Level Salt Lake Center
Tue 05:07:34 PM 37.7678 -112.4392 288° West 399 459 38,000  Level Salt Lake Center
Tue 05:08:36 PM 37.8014 -112.5717 288° West 400 460 38,000  Level Salt Lake Center
Tue 05:09:37 PM 37.8361 -112.7042 288° West 402 463 38,000  Level Salt Lake Center
Tue 05:10:39 PM 37.8697 -112.8369 288° West 402 463 38,000  Level Salt Lake Center
Tue 05:11:40 PM 37.9094 -112.9961 288° West 401 461 38,000  Level Salt Lake Center
Tue 05:12:42 PM 37.9428 -113.1297 288° West 402 463 38,000  Level Salt Lake Center
Tue 05:13:43 PM 37.9756 -113.2628 287° West 400 460 38,000  Level Salt Lake Center
Tue 05:14:45 PM 38.0092 -113.3969 288° West 401 461 38,000  Level Salt Lake Center
Tue 05:15:46 PM 38.0431 -113.5308 288° West 401 461 38,000  Level Salt Lake Center
Tue 05:16:48 PM 38.0753 -113.6647 287° West 400 460 38,000  Level Salt Lake Center
Tue 05:17:49 PM 38.1144 -113.8228 288° West 394 453 38,000  Level Salt Lake Center
Tue 05:18:51 PM 38.1464 -113.9544 287° West 393 452 38,000  Level Salt Lake Center
Tue 05:19:52 PM 38.1772 -114.0856 287° West 390 449 38,000  Level Salt Lake Center
Tue 05:20:54 PM 38.2094 -114.2172 287° West 390 449 38,000  Level Salt Lake Center
Tue 05:21:56 PM 38.2400 -114.3472 287° West 387 445 38,000  Level Salt Lake Center
Tue 05:22:57 PM 38.2458 -114.4839 273° West 389 448 38,000  Level Salt Lake Center
Tue 05:23:59 PM 38.2367 -114.6192 265° West 387 445 38,000  Level Salt Lake Center
Tue 05:25:01 PM 38.2283 -114.7561 266° West 388 447 38,000  Level Salt Lake Center
Tue 05:26:02 PM 38.2183 -114.9172 266° West 384 442 38,000  Level Salt Lake Center
Tue 05:27:04 PM 38.2097 -115.0531 265° West 386 444 38,000  Level Salt Lake Center
Tue 05:28:06 PM 38.2011 -115.1889 265° West 387 445 38,000  Level Salt Lake Center
Tue 05:29:07 PM 38.1925 -115.3233 265° West 388 447 38,000  Level Salt Lake Center
Tue 05:30:09 PM 38.1828 -115.4600 265° West 388 447 38,000  Level Salt Lake Center
Tue 05:31:11 PM 38.1739 -115.5983 265° West 393 452 38,000  Level Salt Lake Center
Tue 05:32:13 PM 38.1619 -115.7636 265° West 392 451 38,000  Level Salt Lake Center
Tue 05:33:14 PM 38.1522 -115.9017 265° West 393 452 38,000  Level Salt Lake Center
Tue 05:34:16 PM 38.1422 -116.0400 265° West 394 453 38,000  Level Salt Lake Center
Tue 05:35:18 PM 38.1319 -116.1767 265° West 389 448 38,000  Level Salt Lake Center
Tue 05:36:20 PM 38.1219 -116.3139 265° West 391 450 38,000  Level Salt Lake Center
Tue 05:37:00 PM 38.1156 -116.3986 265° West 394 453 38,000  Level Oakland Center
Tue 05:37:21 PM 38.1106 -116.4547 264° West 397 457 38,000  Level Salt Lake Center
Tue 05:38:23 PM 38.1000 -116.5931 265° West 396 456 38,000  Level Salt Lake Center
Tue 05:39:25 PM 38.0892 -116.7314 264° West 394 453 38,000  Level Salt Lake Center
Tue 05:40:27 PM 38.0761 -116.8981 264° West 394 453 38,000  Level Salt Lake Center
Tue 05:41:05 PM 38.0694 -116.9839 264° West 398 458 38,000  Level Oakland Center
Tue 05:42:07 PM 38.0583 -117.1244 264° West 396 456 38,000  Level Oakland Center
Tue 05:42:30 PM 38.0533 -117.1817 264° West 395 455 38,000  Level Salt Lake Center
Tue 05:43:08 PM 38.0464 -117.2672 264° West 393 452 38,000  Level Oakland Center
Tue 05:44:09 PM 38.0342 -117.4081 264° West 395 455 38,000  Level Oakland Center
Tue 05:45:10 PM 38.0228 -117.5453 264° West 391 450 38,000  Level Oakland Center
Tue 05:46:11 PM 38.0114 -117.6825 264° West 390 449 38,000  Level Oakland Center
Tue 05:47:13 PM 37.9989 -117.8203 263° West 392 451 38,000  Level Oakland Center
Tue 05:48:14 PM 37.9839 -117.9567 262° West 392 451 38,000  Level Oakland Center
Tue 05:49:16 PM 37.9694 -118.0919 262° West 389 448 38,000  Level Oakland Center
Tue 05:50:17 PM 37.9544 -118.2289 262° West 391 450 38,000  Level Oakland Center
Tue 05:51:18 PM 37.9389 -118.3672 262° West 395 455 38,000  Level Oakland Center
Tue 05:52:20 PM 37.9233 -118.5033 262° West 392 451 38,000 -439 Level Oakland Center
Tue 05:53:21 PM 37.9069 -118.6714 263° West 400 460 37,100 -984 Descending Oakland Center
Tue 05:54:22 PM 37.8917 -118.8219 263° West 427 491 36,000 -541 Descending Oakland Center
Tue 05:55:23 PM 37.8722 -118.9697 261° West 425 489 36,000  Level Oakland Center
Tue 05:56:25 PM 37.8581 -119.1086 263° West 410 472 36,000  Level Oakland Center
Tue 05:57:26 PM 37.8392 -119.2483 260° West 403 464 36,000  Level Oakland Center
Tue 05:58:28 PM 37.8233 -119.3864 262° West 399 459 36,000  Level Oakland Center
Tue 05:59:29 PM 37.8081 -119.5242 262° West 395 455 36,000 -197 Level Oakland Center
Tue 06:00:30 PM 37.7914 -119.6642 261° West 401 461 35,600 -1,082 Descending Oakland Center
Tue 06:01:31 PM 37.7739 -119.8086 261° West 412 474 33,800 -1,721 Descending Oakland Center
Tue 06:02:32 PM 37.7567 -119.9539 262° West 416 479 32,100 -587 Descending Oakland Center
Tue 06:04:35 PM 37.7172 -120.2633 261° West 404 465 32,000 -33 Descending Oakland Center
Tue 06:05:36 PM 37.6994 -120.4064 261° West 409 471 32,000 -1,082 Level Oakland Center
Tue 06:06:37 PM 37.6814 -120.5503 261° West 415 478 29,800 -2,298 Descending Oakland Center
Tue 06:07:10 PM 37.6667 -120.6333 257° West 427 491 28,400 -2,645 Descending Northern Cal TRACON
Tue 06:08:10 PM 37.6500 -120.7833 262° West 425 489 25,700 -2,600 Descending Northern Cal TRACON
Tue 06:09:10 PM 37.6333 -120.9333 262° West 413 475 23,200 -2,500 Descending Northern Cal TRACON
Tue 06:10:10 PM 37.6167 -121.0500 260° West 396 456 20,700 -2,700 Descending Northern Cal TRACON
Tue 06:11:10 PM 37.6000 -121.2000 262° West 383 441 17,800 -2,700 Descending Northern Cal TRACON
Tue 06:12:10 PM 37.5833 -121.3167 260° West 368 423 15,300 -2,400 Descending Northern Cal TRACON
Tue 06:13:10 PM 37.5667 -121.4333 260° West 355 409 13,000 -2,100 Descending Northern Cal TRACON
Tue 06:14:10 PM 37.5667 -121.5667 270° West 347 399 11,100 -1,000 Descending Northern Cal TRACON
Tue 06:15:10 PM 37.5333 -121.6667 247° West 304 350 11,000 -571 Descending Northern Cal TRACON
Tue 06:16:16 PM 37.5167 -121.7667 258° West 298 343 9,900 -1,333 Descending Northern Cal TRACON
Tue 06:17:16 PM 37.4833 -121.8667 247° West 291 335 8,200 -1,400 Descending Northern Cal TRACON
Tue 06:18:16 PM 37.4667 -121.9667 258° West 268 308 7,100 -1,100 Descending Northern Cal TRACON
Tue 06:19:16 PM 37.5000 -122.0333 302° West 233 268 6,000 -800 Descending Northern Cal TRACON
Tue 06:20:16 PM 37.5333 -122.1000 302° West 188 216 5,500 -918 Descending Northern Cal TRACON
Tue 06:20:54 PM 37.5347 -122.1297 273° West 200 230 4,500 -1,515 Descending Oakland Center
Tue 06:21:55 PM 37.5556 -122.1983 291° West 203 234 3,000 -1,475 Descending Oakland Center

Login

Don't have an account? Register now (free) for customized features, flight alerts, and more!